createdAt,value
2023-02-11T00:02:05.318Z,65.60
2023-02-11T00:04:38.331Z,65.45
2023-02-11T00:07:11.283Z,65.36
2023-02-11T00:09:45.647Z,65.43
2023-02-11T00:12:19.692Z,65.15
2023-02-11T00:14:52.781Z,64.97
2023-02-11T00:17:25.749Z,64.94
2023-02-11T00:19:58.738Z,65.05
2023-02-11T00:22:32.292Z,65.11
2023-02-11T00:25:07.368Z,64.94
2023-02-11T00:27:40.368Z,64.94
2023-02-11T00:30:13.953Z,65.01
2023-02-11T00:32:46.970Z,65.05
2023-02-11T00:35:19.941Z,65.07
2023-02-11T00:37:54.511Z,65.10
2023-02-11T00:40:29.097Z,65.23
2023-02-11T00:43:02.076Z,65.18
2023-02-11T00:45:37.533Z,65.17
2023-02-11T00:48:10.512Z,65.27
2023-02-11T00:50:43.462Z,65.31
2023-02-11T00:53:16.489Z,65.33
2023-02-11T00:55:51.057Z,65.54
2023-02-11T00:58:24.277Z,65.52
2023-02-11T01:00:58.369Z,65.30
2023-02-11T01:03:31.582Z,65.39
2023-02-11T01:06:05.096Z,65.31
2023-02-11T01:08:38.670Z,65.30
2023-02-11T01:11:16.402Z,65.26
2023-02-11T01:13:51.595Z,65.33
2023-02-11T01:16:24.569Z,65.17
2023-02-11T01:18:59.910Z,65.28
2023-02-11T01:21:32.983Z,65.27
2023-02-11T01:24:06.243Z,65.14
2023-02-11T01:26:40.637Z,65.42
2023-02-11T01:29:13.657Z,65.24
2023-02-11T01:31:46.679Z,65.38
2023-02-11T01:34:19.702Z,65.34
2023-02-11T01:36:52.670Z,65.18
2023-02-11T01:39:25.763Z,65.09
2023-02-11T01:42:00.185Z,65.18
2023-02-11T01:44:40.304Z,65.16
2023-02-11T01:47:13.320Z,65.06
2023-02-11T01:49:50.869Z,65.16
2023-02-11T01:52:29.082Z,65.15
2023-02-11T01:55:24.027Z,65.11
2023-02-11T01:58:03.678Z,65.01
2023-02-11T02:00:39.330Z,64.87
2023-02-11T02:03:16.509Z,64.80
2023-02-11T02:05:56.637Z,64.78
2023-02-11T02:08:36.162Z,64.59
2023-02-11T02:11:09.216Z,64.52
2023-02-11T02:13:45.768Z,64.52
2023-02-11T02:16:22.402Z,64.33
2023-02-11T02:19:14.109Z,64.42
2023-02-11T02:22:19.602Z,64.20
2023-02-11T02:25:07.733Z,64.20
2023-02-11T02:27:49.078Z,64.07
2023-02-11T02:30:51.130Z,64.03
2023-02-11T02:33:34.358Z,64.04
2023-02-11T02:36:15.571Z,63.97
2023-02-11T02:38:55.063Z,64.02
2023-02-11T02:41:31.151Z,63.90
2023-02-11T02:44:04.520Z,63.79
2023-02-11T02:46:38.367Z,63.81
2023-02-11T02:49:16.343Z,63.77
2023-02-11T02:52:05.071Z,63.72
2023-02-11T02:55:01.098Z,63.73
2023-02-11T02:58:04.632Z,63.73
2023-02-11T03:00:45.174Z,63.55
2023-02-11T03:03:26.476Z,63.51
2023-02-11T03:06:06.232Z,63.63
2023-02-11T03:08:42.469Z,63.62
2023-02-11T03:11:19.343Z,63.67
2023-02-11T03:13:53.832Z,63.58
2023-02-11T03:16:28.500Z,63.34
2023-02-11T03:19:06.814Z,63.35
2023-02-11T03:21:43.817Z,63.24
2023-02-11T03:24:21.829Z,63.22
2023-02-11T03:26:57.525Z,63.25
2023-02-11T03:29:36.618Z,63.15
2023-02-11T03:32:16.592Z,62.96
2023-02-11T03:34:54.080Z,62.97
2023-02-11T03:37:32.970Z,63.03
2023-02-11T03:40:09.928Z,62.92
2023-02-11T03:42:47.059Z,62.65
2023-02-11T03:45:22.833Z,62.70
2023-02-11T03:47:58.829Z,62.62
2023-02-11T03:50:34.945Z,62.46
2023-02-11T03:53:10.691Z,62.40
2023-02-11T03:55:45.046Z,62.46
2023-02-11T03:58:18.107Z,62.35
2023-02-11T04:00:51.337Z,62.15
2023-02-11T04:03:24.537Z,62.28
2023-02-11T04:05:57.601Z,62.14
2023-02-11T04:08:32.916Z,62.32
2023-02-11T04:11:06.014Z,62.24
2023-02-11T04:13:38.928Z,62.27
2023-02-11T04:16:11.907Z,62.29
2023-02-11T04:18:44.953Z,62.40
2023-02-11T04:21:17.988Z,62.42
2023-02-11T04:23:52.309Z,62.47
2023-02-11T04:26:25.500Z,62.46
2023-02-11T04:29:01.074Z,62.34
2023-02-11T04:31:34.165Z,62.49
2023-02-11T04:34:07.136Z,62.52
2023-02-11T04:36:40.172Z,62.42
2023-02-11T04:39:14.586Z,62.40
2023-02-11T04:41:47.537Z,62.40
2023-02-11T04:44:20.524Z,62.37
2023-02-11T04:46:53.455Z,62.45
2023-02-11T04:49:26.647Z,62.26
2023-02-11T04:51:59.619Z,62.31
2023-02-11T04:54:33.959Z,62.40
2023-02-11T04:57:06.951Z,62.35
2023-02-11T04:59:40.688Z,62.35
2023-02-11T05:02:13.617Z,62.28
2023-02-11T05:04:46.710Z,62.10
2023-02-11T05:07:19.725Z,62.09
2023-02-11T05:09:54.097Z,61.77
2023-02-11T05:12:27.153Z,62.11
2023-02-11T05:15:00.149Z,61.85
2023-02-11T05:17:33.156Z,61.95
2023-02-11T05:20:07.145Z,61.83
2023-02-11T05:22:39.885Z,61.68
2023-02-11T05:25:14.222Z,61.79
2023-02-11T05:27:47.330Z,61.80
2023-02-11T05:30:20.592Z,61.93
2023-02-11T05:32:53.576Z,61.89
2023-02-11T05:35:26.563Z,61.75
2023-02-11T05:37:59.492Z,61.71
2023-02-11T05:40:33.798Z,61.83
2023-02-11T05:43:06.765Z,61.73
2023-02-11T05:45:39.715Z,61.78
2023-02-11T05:48:12.712Z,61.90
2023-02-11T05:50:45.986Z,61.84
2023-02-11T05:53:18.942Z,61.90
2023-02-11T05:55:54.231Z,61.93
2023-02-11T05:58:27.258Z,61.93
2023-02-11T06:01:00.228Z,61.89
2023-02-11T06:03:33.285Z,61.85
2023-02-11T06:06:10.450Z,61.60
2023-02-11T06:08:43.415Z,61.62
2023-02-11T06:11:20.246Z,61.76
2023-02-11T06:13:53.237Z,61.72
2023-02-11T06:16:26.299Z,61.60
2023-02-11T06:18:59.290Z,61.59
2023-02-11T06:21:43.202Z,61.56
2023-02-11T06:24:24.665Z,61.47
2023-02-11T06:27:11.306Z,61.54
2023-02-11T06:29:44.407Z,61.54
2023-02-11T06:32:39.490Z,61.57
2023-02-11T06:35:12.102Z,61.54
2023-02-11T06:37:45.527Z,61.53
2023-02-11T06:40:18.603Z,61.63
2023-02-11T06:42:53.022Z,61.66
2023-02-11T06:45:26.030Z,61.73
2023-02-11T06:47:59.041Z,61.83
2023-02-11T06:50:32.045Z,61.66
2023-02-11T06:53:05.086Z,61.63
2023-02-11T06:55:38.101Z,61.57
2023-02-11T06:58:12.592Z,61.53
2023-02-11T07:00:45.616Z,61.76
2023-02-11T07:03:18.638Z,61.55
2023-02-11T07:05:52.109Z,61.54
2023-02-11T07:08:25.336Z,61.61
2023-02-11T07:10:58.341Z,61.52
2023-02-11T07:13:32.739Z,61.67
2023-02-11T07:16:07.559Z,61.64
2023-02-11T07:18:40.829Z,61.78
2023-02-11T07:21:15.271Z,61.83
2023-02-11T07:23:49.016Z,61.63
2023-02-11T07:26:24.228Z,61.64
2023-02-11T07:28:58.603Z,61.88
2023-02-11T07:31:32.459Z,62.04
2023-02-11T07:34:05.593Z,61.99
2023-02-11T07:36:38.731Z,62.14
2023-02-11T07:39:11.854Z,62.17
2023-02-11T07:41:47.856Z,62.21
2023-02-11T07:44:22.241Z,62.44
2023-02-11T07:46:55.416Z,62.69
2023-02-11T07:49:28.501Z,62.83
2023-02-11T07:52:03.561Z,62.87
2023-02-11T07:54:36.492Z,63.22
2023-02-11T07:57:12.620Z,63.36
2023-02-11T07:59:49.917Z,63.71
2023-02-11T08:02:23.022Z,63.91
2023-02-11T08:04:56.032Z,64.19
2023-02-11T08:07:29.765Z,64.38
2023-02-11T08:10:02.749Z,64.60
2023-02-11T08:12:35.731Z,64.79
2023-02-11T08:15:10.885Z,65.07
2023-02-11T08:17:43.912Z,65.11
2023-02-11T08:20:17.001Z,65.04
2023-02-11T08:22:50.184Z,65.42
2023-02-11T08:25:23.271Z,65.60
2023-02-11T08:27:56.325Z,65.77
2023-02-11T08:30:30.794Z,66.04
2023-02-11T08:33:03.876Z,66.06
2023-02-11T08:35:37.281Z,66.21
2023-02-11T08:38:10.256Z,66.44
2023-02-11T08:40:43.268Z,66.63
2023-02-11T08:43:16.601Z,66.68
2023-02-11T08:45:51.162Z,66.83
2023-02-11T08:48:24.357Z,66.68
2023-02-11T08:51:00.448Z,66.93
2023-02-11T08:53:33.427Z,66.95
2023-02-11T08:56:07.230Z,67.00
2023-02-11T08:58:40.193Z,66.89
2023-02-11T09:01:16.416Z,67.24
2023-02-11T09:03:49.904Z,67.11
2023-02-11T09:06:24.406Z,67.11
2023-02-11T09:08:58.959Z,67.27
2023-02-11T09:11:33.994Z,67.36
2023-02-11T09:14:07.134Z,67.25
2023-02-11T09:16:41.501Z,67.26
2023-02-11T09:19:14.613Z,67.20
2023-02-11T09:21:48.017Z,67.11
2023-02-11T09:24:20.998Z,67.16
2023-02-11T09:26:53.960Z,67.34
2023-02-11T09:29:26.957Z,67.27
2023-02-11T09:32:01.473Z,67.37
2023-02-11T09:34:34.579Z,67.36
2023-02-11T09:37:09.321Z,67.54
2023-02-11T09:39:42.350Z,67.52
2023-02-11T09:42:48.684Z,67.54
2023-02-11T09:45:25.598Z,67.86
2023-02-11T09:48:05.847Z,67.77
2023-02-11T09:50:43.645Z,67.82
2023-02-11T09:53:22.226Z,67.88
2023-02-11T09:56:01.664Z,67.94
2023-02-11T09:58:37.013Z,67.89
2023-02-11T10:01:24.412Z,68.06
2023-02-11T10:04:09.022Z,67.98
2023-02-11T10:06:45.813Z,68.40
2023-02-11T10:09:45.032Z,68.07
2023-02-11T10:12:29.563Z,68.35
2023-02-11T10:15:16.591Z,68.57
2023-02-11T10:18:07.799Z,68.62
2023-02-11T10:20:56.574Z,68.88
2023-02-11T10:23:34.651Z,68.99
2023-02-11T10:26:14.037Z,69.18
2023-02-11T10:28:49.222Z,69.35
2023-02-11T10:31:26.950Z,69.36
2023-02-11T10:34:04.790Z,69.55
2023-02-11T10:36:42.987Z,69.56
2023-02-11T10:39:18.828Z,69.71
2023-02-11T10:41:55.607Z,69.79
2023-02-11T10:44:32.310Z,69.92
2023-02-11T10:47:13.025Z,69.88
2023-02-11T10:49:50.456Z,69.94
2023-02-11T10:52:26.598Z,70.06
2023-02-11T10:55:06.040Z,70.07
2023-02-11T10:57:44.574Z,70.17
2023-02-11T11:00:36.912Z,70.05
2023-02-11T11:03:19.594Z,70.11
2023-02-11T11:05:56.604Z,70.06
2023-02-11T11:08:42.279Z,70.02
2023-02-11T11:11:17.595Z,70.13
2023-02-11T11:13:58.327Z,70.11
2023-02-11T11:16:32.295Z,70.07
2023-02-11T11:19:21.413Z,70.13
2023-02-11T11:21:56.140Z,70.25
2023-02-11T11:24:34.512Z,70.36
2023-02-11T11:27:19.329Z,70.18
2023-02-11T11:29:54.920Z,70.09
2023-02-11T11:32:32.419Z,70.20
2023-02-11T11:35:21.696Z,70.31
2023-02-11T11:37:59.964Z,70.24
2023-02-11T11:40:37.358Z,70.38
2023-02-11T11:43:23.097Z,70.19
2023-02-11T11:45:58.308Z,70.34
2023-02-11T11:48:36.117Z,70.48
2023-02-11T11:51:12.380Z,70.50
2023-02-11T11:53:52.352Z,70.54
2023-02-11T11:56:28.781Z,70.53
2023-02-11T11:59:03.739Z,70.54
2023-02-11T12:01:49.563Z,70.61
2023-02-11T12:04:37.549Z,70.73
2023-02-11T12:07:25.966Z,70.79
2023-02-11T12:10:33.819Z,70.61
2023-02-11T12:13:21.942Z,70.90
2023-02-11T12:16:02.959Z,70.93
2023-02-11T12:18:55.078Z,70.99
2023-02-11T12:21:42.392Z,71.09
2023-02-11T12:24:33.275Z,71.33
2023-02-11T12:27:15.126Z,71.44
2023-02-11T12:30:02.285Z,71.43
2023-02-11T12:32:40.286Z,71.58
2023-02-11T12:35:33.571Z,71.68
2023-02-11T12:38:33.448Z,71.52
2023-02-11T12:41:47.159Z,71.79
2023-02-11T12:44:31.096Z,71.48
2023-02-11T12:47:15.309Z,71.55
2023-02-11T12:50:01.798Z,71.53
2023-02-11T12:52:49.917Z,71.47
2023-02-11T12:55:25.632Z,71.49
2023-02-11T12:58:00.294Z,71.57
2023-02-11T13:00:45.069Z,71.57
2023-02-11T13:03:25.602Z,71.56
2023-02-11T13:06:03.661Z,71.67
2023-02-11T13:08:40.142Z,71.62
2023-02-11T13:11:16.556Z,71.67
2023-02-11T13:13:56.170Z,71.66
2023-02-11T13:16:36.899Z,71.59
2023-02-11T13:19:25.155Z,71.74
2023-02-11T13:22:09.754Z,71.67
2023-02-11T13:24:45.778Z,71.46
2023-02-11T13:27:30.923Z,71.74
2023-02-11T13:30:28.335Z,71.65
2023-02-11T13:33:19.569Z,71.49
2023-02-11T13:36:22.430Z,71.55
2023-02-11T13:38:59.844Z,71.52
2023-02-11T13:41:42.168Z,71.72
2023-02-11T13:44:26.980Z,71.57
2023-02-11T13:47:03.292Z,71.57
2023-02-11T13:49:40.788Z,71.74
2023-02-11T13:52:26.872Z,71.73
2023-02-11T13:55:10.391Z,71.71
2023-02-11T13:57:43.534Z,71.88
2023-02-11T14:00:51.745Z,71.61
2023-02-11T14:03:57.107Z,71.74
2023-02-11T14:07:02.543Z,71.84
2023-02-11T14:09:44.334Z,72.12
2023-02-11T14:12:34.611Z,72.18
2023-02-11T14:15:23.153Z,72.26
2023-02-11T14:17:56.237Z,72.14
2023-02-11T14:20:40.672Z,72.32
2023-02-11T14:23:28.440Z,72.39
2023-02-11T14:26:19.900Z,72.57
2023-02-11T14:28:59.609Z,72.65
2023-02-11T14:31:41.353Z,72.57
2023-02-11T14:34:39.830Z,72.71
2023-02-11T14:37:23.703Z,72.72
2023-02-11T14:40:09.415Z,72.66
2023-02-11T14:42:43.867Z,72.67
2023-02-11T14:45:21.122Z,72.85
2023-02-11T14:47:59.499Z,72.83
2023-02-11T14:50:41.611Z,72.86
2023-02-11T14:53:17.453Z,73.04
2023-02-11T14:55:53.415Z,73.07
2023-02-11T14:58:29.594Z,72.93
2023-02-11T15:01:23.497Z,73.21
2023-02-11T15:03:58.741Z,73.05
2023-02-11T15:06:35.515Z,73.15
2023-02-11T15:09:17.296Z,73.19
2023-02-11T15:11:52.098Z,73.15
2023-02-11T15:14:28.262Z,73.16
2023-02-11T15:17:04.552Z,73.26
2023-02-11T15:19:41.907Z,73.30
2023-02-11T15:22:20.282Z,73.30
2023-02-11T15:25:01.396Z,73.25
2023-02-11T15:27:40.236Z,73.20
2023-02-11T15:30:31.532Z,73.23
2023-02-11T15:33:06.942Z,73.20
2023-02-11T15:35:42.425Z,73.26
2023-02-11T15:38:15.505Z,73.27
2023-02-11T15:40:57.536Z,73.26
2023-02-11T15:43:44.590Z,73.39
2023-02-11T15:46:21.708Z,73.47
2023-02-11T15:48:56.490Z,73.42
2023-02-11T15:51:32.955Z,73.42
2023-02-11T15:54:09.420Z,73.36
2023-02-11T15:56:44.635Z,73.33
2023-02-11T15:59:21.608Z,73.46
2023-02-11T16:01:59.005Z,73.43
2023-02-11T16:04:32.508Z,73.38
2023-02-11T16:07:06.556Z,73.38
2023-02-11T16:09:39.848Z,73.10
2023-02-11T16:12:27.072Z,73.50
2023-02-11T16:15:03.910Z,73.37
2023-02-11T16:17:38.493Z,73.48
2023-02-11T16:20:19.571Z,73.71
2023-02-11T16:22:52.853Z,73.66
2023-02-11T16:25:25.993Z,73.75
2023-02-11T16:27:59.054Z,73.71
2023-02-11T16:30:47.995Z,73.82
2023-02-11T16:33:22.638Z,73.71
2023-02-11T16:35:55.678Z,73.85
2023-02-11T16:38:29.179Z,73.75
2023-02-11T16:41:05.327Z,73.81
2023-02-11T16:43:38.486Z,73.77
2023-02-11T16:46:16.410Z,73.71
2023-02-11T16:48:50.912Z,73.78
2023-02-11T16:51:24.549Z,73.77
2023-02-11T16:54:01.194Z,73.70
2023-02-11T16:56:34.251Z,73.86
2023-02-11T16:59:09.542Z,73.45
2023-02-11T17:01:44.325Z,73.92
2023-02-11T17:04:21.862Z,73.90
2023-02-11T17:07:00.104Z,73.73
2023-02-11T17:09:33.641Z,73.91
2023-02-11T17:12:07.430Z,74.00
2023-02-11T17:14:40.756Z,73.84
2023-02-11T17:17:27.341Z,74.12
2023-02-11T17:20:45.558Z,73.83
2023-02-11T17:23:19.653Z,74.10
2023-02-11T17:25:58.556Z,73.99
2023-02-11T17:28:32.435Z,74.11
2023-02-11T17:31:08.145Z,73.57
2023-02-11T17:33:41.134Z,73.86
2023-02-11T17:36:15.476Z,74.08
2023-02-11T17:38:48.457Z,74.17
2023-02-11T17:41:21.445Z,74.18
2023-02-11T17:43:54.731Z,74.36
2023-02-11T17:46:29.306Z,74.21
2023-02-11T17:49:03.146Z,74.17
2023-02-11T17:51:39.552Z,74.26
2023-02-11T17:54:16.046Z,74.43
2023-02-11T17:56:50.795Z,74.40
2023-02-11T17:59:25.256Z,74.34
2023-02-11T18:01:58.441Z,74.47
2023-02-11T18:04:32.251Z,74.45
2023-02-11T18:07:06.703Z,74.34
2023-02-11T18:09:40.512Z,74.41
2023-02-11T18:12:13.532Z,74.32
2023-02-11T18:14:46.538Z,74.42
2023-02-11T18:17:19.494Z,74.47
2023-02-11T18:19:55.910Z,74.36
2023-02-11T18:22:33.710Z,74.33
2023-02-11T18:25:08.167Z,74.29
2023-02-11T18:27:41.151Z,74.25
2023-02-11T18:30:17.662Z,74.26
2023-02-11T18:32:54.652Z,74.22
2023-02-11T18:35:27.704Z,74.11
2023-02-11T18:38:03.102Z,74.32
2023-02-11T18:40:36.260Z,74.21
2023-02-11T18:43:09.271Z,74.17
2023-02-11T18:45:44.043Z,74.19
2023-02-11T18:48:18.213Z,74.20
2023-02-11T18:50:51.194Z,74.25
2023-02-11T18:53:26.160Z,74.21
2023-02-11T18:55:59.159Z,74.19
2023-02-11T18:58:32.195Z,74.20
2023-02-11T19:01:12.338Z,74.18
2023-02-11T19:03:49.236Z,74.13
2023-02-11T19:06:25.433Z,74.22
2023-02-11T19:09:01.431Z,74.24
2023-02-11T19:11:51.057Z,74.08
2023-02-11T19:14:26.735Z,74.10
2023-02-11T19:17:01.595Z,74.08
2023-02-11T19:19:36.835Z,74.18
2023-02-11T19:22:13.137Z,74.13
2023-02-11T19:24:47.585Z,74.27
2023-02-11T19:27:20.639Z,74.22
2023-02-11T19:29:53.641Z,74.12
2023-02-11T19:32:26.593Z,74.23
2023-02-11T19:34:59.653Z,74.20
2023-02-11T19:37:32.683Z,74.15
2023-02-11T19:40:08.895Z,74.05
2023-02-11T19:42:41.916Z,74.29
2023-02-11T19:45:15.620Z,74.06
2023-02-11T19:47:50.876Z,74.13
2023-02-11T19:50:24.043Z,74.23
2023-02-11T19:52:57.630Z,74.00
2023-02-11T19:55:32.069Z,74.03
2023-02-11T19:58:05.032Z,74.04
2023-02-11T20:00:38.179Z,74.04
2023-02-11T20:03:11.310Z,73.88
2023-02-11T20:05:47.119Z,73.82
2023-02-11T20:08:20.090Z,74.03
2023-02-11T20:10:54.801Z,74.08
2023-02-11T20:13:29.731Z,74.02
2023-02-11T20:16:07.797Z,74.22
2023-02-11T20:18:44.007Z,74.12
2023-02-11T20:21:19.856Z,74.15
2023-02-11T20:23:53.990Z,74.24
2023-02-11T20:26:30.748Z,74.34
2023-02-11T20:29:04.126Z,74.35
2023-02-11T20:31:37.413Z,74.33
2023-02-11T20:34:11.470Z,74.25
2023-02-11T20:36:51.422Z,73.81
2023-02-11T20:39:26.854Z,74.02
2023-02-11T20:42:02.622Z,74.06
2023-02-11T20:44:36.685Z,74.14
2023-02-11T20:47:09.803Z,74.09
2023-02-11T20:49:42.919Z,74.00
2023-02-11T20:52:15.963Z,74.14
2023-02-11T20:54:48.945Z,74.14
2023-02-11T20:57:23.497Z,74.17
2023-02-11T20:59:56.529Z,74.15
2023-02-11T21:02:30.417Z,74.23
2023-02-11T21:05:03.424Z,73.65
2023-02-11T21:07:38.846Z,73.85
2023-02-11T21:10:12.959Z,74.02
2023-02-11T21:12:49.756Z,73.58
2023-02-11T21:15:24.224Z,73.79
2023-02-11T21:17:57.306Z,73.84
2023-02-11T21:20:30.394Z,73.96
2023-02-11T21:23:03.470Z,73.82
2023-02-11T21:25:36.424Z,73.92
2023-02-11T21:28:10.887Z,74.02
2023-02-11T21:30:44.244Z,73.92
2023-02-11T21:33:17.271Z,73.96
2023-02-11T21:35:55.752Z,74.30
2023-02-11T21:38:29.249Z,73.97
2023-02-11T21:41:04.581Z,74.12
2023-02-11T21:43:39.494Z,73.99
2023-02-11T21:46:15.128Z,73.99
2023-02-11T21:48:48.867Z,74.06
2023-02-11T21:51:23.435Z,73.86
2023-02-11T21:53:57.376Z,73.75
2023-02-11T21:56:30.908Z,73.47
2023-02-11T21:59:05.383Z,73.63
2023-02-11T22:01:38.429Z,73.67
2023-02-11T22:04:11.404Z,73.74
2023-02-11T22:06:46.621Z,73.76
2023-02-11T22:09:19.664Z,73.73
2023-02-11T22:11:53.664Z,73.75
2023-02-11T22:14:28.049Z,73.40
2023-02-11T22:17:01.953Z,73.36
2023-02-11T22:19:35.127Z,73.48
2023-02-11T22:22:09.383Z,73.45
2023-02-11T22:24:42.798Z,73.43
2023-02-11T22:27:19.177Z,73.48
2023-02-11T22:29:54.493Z,73.56
2023-02-11T22:32:27.631Z,73.55
2023-02-11T22:35:00.622Z,73.66
2023-02-11T22:37:33.628Z,73.69
2023-02-11T22:40:07.954Z,73.51
2023-02-11T22:42:40.919Z,73.67
2023-02-11T22:45:15.392Z,73.56
2023-02-11T22:47:48.327Z,73.31
2023-02-11T22:50:21.365Z,73.06
2023-02-11T22:52:54.350Z,72.81
2023-02-11T22:55:27.703Z,72.81
2023-02-11T22:58:00.647Z,72.51
2023-02-11T23:00:39.363Z,72.36
2023-02-11T23:03:14.127Z,72.11
2023-02-11T23:05:47.192Z,71.97
2023-02-11T23:08:20.178Z,71.70
2023-02-11T23:10:53.374Z,71.46
2023-02-11T23:13:26.345Z,71.37
2023-02-11T23:16:00.726Z,71.25
2023-02-11T23:18:33.854Z,71.08
2023-02-11T23:21:12.354Z,71.06
2023-02-11T23:23:46.774Z,71.17
2023-02-11T23:26:19.897Z,71.04
2023-02-11T23:28:53.015Z,70.80
2023-02-11T23:31:29.834Z,70.86
2023-02-11T23:34:02.975Z,70.50
2023-02-11T23:36:36.284Z,70.29
2023-02-11T23:39:09.247Z,70.22
2023-02-11T23:41:42.211Z,70.04
2023-02-11T23:44:15.182Z,70.01
2023-02-11T23:46:49.560Z,69.69
2023-02-11T23:49:22.482Z,69.68
2023-02-11T23:51:55.435Z,69.38
2023-02-11T23:54:28.427Z,69.27
2023-02-11T23:57:01.400Z,69.09
2023-02-11T23:59:34.415Z,69.00
